createdAt,value
2022-11-07T00:02:00.177Z,99522.13
2022-11-07T00:04:29.591Z,99531.84
2022-11-07T00:06:59.823Z,99540.78
2022-11-07T00:09:27.763Z,99541.84
2022-11-07T00:11:55.457Z,99536.66
2022-11-07T00:14:23.065Z,99541.38
2022-11-07T00:16:51.264Z,99543.16
2022-11-07T00:19:20.424Z,99539.41
2022-11-07T00:21:49.837Z,99548.91
2022-11-07T00:24:19.776Z,99543.84
2022-11-07T00:26:49.488Z,99552.63
2022-11-07T00:29:18.837Z,99546.63
2022-11-07T00:31:47.343Z,99544.25
2022-11-07T00:34:15.047Z,99539.34
2022-11-07T00:36:42.893Z,99541.28
2022-11-07T00:39:11.285Z,99546.91
2022-11-07T00:41:40.474Z,99550.13
2022-11-07T00:44:08.308Z,99539.81
2022-11-07T00:46:36.052Z,99553.25
2022-11-07T00:49:03.672Z,99564.31
2022-11-07T00:51:32.012Z,99563.19
2022-11-07T00:54:00.617Z,99559.66
2022-11-07T00:56:28.276Z,99569.06
2022-11-07T00:58:58.098Z,99571.81
2022-11-07T01:01:28.158Z,99568.63
2022-11-07T01:04:13.927Z,99566.63
2022-11-07T01:06:43.740Z,99572.47
2022-11-07T01:09:13.599Z,99570.09
2022-11-07T01:11:42.014Z,99571.75
2022-11-07T01:14:13.603Z,99571.22
2022-11-07T01:16:41.893Z,99580.91
2022-11-07T01:19:10.196Z,99574.34
2022-11-07T01:21:39.482Z,99577.28
2022-11-07T01:24:08.369Z,99576.72
2022-11-07T01:26:37.403Z,99580.19
2022-11-07T01:29:05.396Z,99578.09
2022-11-07T01:31:34.651Z,99573.06
2022-11-07T01:34:02.579Z,99574.06
2022-11-07T01:36:30.255Z,99571.97
2022-11-07T01:38:57.895Z,99581.47
2022-11-07T01:41:27.992Z,99580.47
2022-11-07T01:43:58.842Z,99568.03
2022-11-07T01:46:29.120Z,99576.09
2022-11-07T01:49:04.789Z,99585.69
2022-11-07T01:51:34.851Z,99581.31
2022-11-07T01:54:03.689Z,99575.19
2022-11-07T01:56:34.520Z,99582.41
2022-11-07T01:59:03.742Z,99583.78
2022-11-07T02:01:31.517Z,99579.97
2022-11-07T02:04:01.786Z,99586.94
2022-11-07T02:06:35.620Z,99574.09
2022-11-07T02:09:03.299Z,99579.06
2022-11-07T02:11:31.089Z,99572.94
2022-11-07T02:13:58.765Z,99566.16
2022-11-07T02:16:27.780Z,99565.78
2022-11-07T02:18:56.092Z,99578.22
2022-11-07T02:21:38.049Z,99573.03
2022-11-07T02:24:15.656Z,99561.09
2022-11-07T02:26:44.072Z,99563.88
2022-11-07T02:29:12.876Z,99559.75
2022-11-07T02:31:40.572Z,99558.00
2022-11-07T02:34:08.161Z,99560.50
2022-11-07T02:36:36.208Z,99563.50
2022-11-07T02:39:04.344Z,99554.97
2022-11-07T02:41:35.715Z,99560.00
2022-11-07T02:44:07.369Z,99561.19
2022-11-07T02:46:35.104Z,99553.16
2022-11-07T02:49:03.097Z,99553.50
2022-11-07T02:51:30.777Z,99556.16
2022-11-07T02:53:59.852Z,99550.13
2022-11-07T02:56:27.499Z,99555.31
2022-11-07T02:58:56.696Z,99547.00
2022-11-07T03:01:25.228Z,99555.34
2022-11-07T03:03:53.137Z,99552.13
2022-11-07T03:06:23.381Z,99552.41
2022-11-07T03:08:51.128Z,99550.66
2022-11-07T03:11:20.127Z,99549.31
2022-11-07T03:13:48.465Z,99557.72
2022-11-07T03:16:19.127Z,99553.50
2022-11-07T03:18:46.756Z,99550.00
2022-11-07T03:21:14.835Z,99562.28
2022-11-07T03:23:42.424Z,99559.44
2022-11-07T03:26:10.348Z,99562.28
2022-11-07T03:28:37.949Z,99562.72
2022-11-07T03:31:06.024Z,99556.41
2022-11-07T03:33:34.955Z,99554.13
2022-11-07T03:36:02.807Z,99564.94
2022-11-07T03:38:30.395Z,99560.63
2022-11-07T03:40:57.959Z,99564.28
2022-11-07T03:43:25.734Z,99564.84
2022-11-07T03:45:53.285Z,99577.47
2022-11-07T03:48:20.899Z,99570.97
2022-11-07T03:50:49.829Z,99574.38
2022-11-07T03:53:23.863Z,99574.56
2022-11-07T03:55:55.940Z,99576.81
2022-11-07T03:58:24.297Z,99586.81
2022-11-07T04:00:52.502Z,99588.91
2022-11-07T04:03:20.174Z,99594.78
2022-11-07T04:05:47.741Z,99603.38
2022-11-07T04:08:17.183Z,99590.66
2022-11-07T04:10:44.999Z,99597.53
2022-11-07T04:13:29.998Z,99597.13
2022-11-07T04:16:17.769Z,99611.31
2022-11-07T04:18:45.542Z,99608.41
2022-11-07T04:21:13.477Z,99608.88
2022-11-07T04:23:42.406Z,99615.16
2022-11-07T04:26:27.414Z,99613.53
2022-11-07T04:28:55.037Z,99629.16
2022-11-07T04:31:22.986Z,99617.81
2022-11-07T04:33:50.581Z,99614.31
2022-11-07T04:36:18.160Z,99625.16
2022-11-07T04:38:47.118Z,99629.81
2022-11-07T04:41:22.038Z,99626.63
2022-11-07T04:43:50.079Z,99624.97
2022-11-07T04:46:18.223Z,99624.59
2022-11-07T04:48:45.996Z,99633.94
2022-11-07T04:51:15.985Z,99622.31
2022-11-07T04:53:43.710Z,99630.94
2022-11-07T04:56:12.665Z,99631.38
2022-11-07T04:58:41.996Z,99635.13
2022-11-07T05:01:09.686Z,99630.94
2022-11-07T05:03:41.544Z,99623.59
2022-11-07T05:06:14.771Z,99614.28
2022-11-07T05:08:42.388Z,99629.66
2022-11-07T05:11:10.983Z,99625.72
2022-11-07T05:13:39.921Z,99633.31
2022-11-07T05:16:12.781Z,99633.13
2022-11-07T05:18:40.329Z,99629.66
2022-11-07T05:21:07.940Z,99623.97
2022-11-07T05:23:34.683Z,99622.31
2022-11-07T05:26:02.306Z,99628.38
2022-11-07T05:28:38.616Z,99629.19
2022-11-07T05:31:09.670Z,99634.34
2022-11-07T05:33:37.642Z,99640.25
2022-11-07T05:36:13.797Z,99636.69
2022-11-07T05:38:43.011Z,99640.81
2022-11-07T05:41:10.719Z,99626.81
2022-11-07T05:43:38.970Z,99645.56
2022-11-07T05:46:08.756Z,99645.13
2022-11-07T05:48:36.740Z,99644.63
2022-11-07T05:51:04.908Z,99649.28
2022-11-07T05:53:32.866Z,99657.25
2022-11-07T05:56:00.629Z,99646.66
2022-11-07T05:58:28.224Z,99648.25
2022-11-07T06:00:56.917Z,99649.28
2022-11-07T06:03:25.857Z,99652.47
2022-11-07T06:05:53.513Z,99652.22
2022-11-07T06:08:21.092Z,99659.75
2022-11-07T06:10:48.680Z,99658.94
2022-11-07T06:13:17.520Z,99661.25
2022-11-07T06:15:47.041Z,99667.13
2022-11-07T06:18:16.704Z,99672.75
2022-11-07T06:20:45.760Z,99669.25
2022-11-07T06:23:14.125Z,99669.91
2022-11-07T06:25:43.255Z,99664.44
2022-11-07T06:28:12.582Z,99680.53
2022-11-07T06:30:40.192Z,99672.75
2022-11-07T06:33:11.032Z,99680.97
2022-11-07T06:35:38.757Z,99673.50
2022-11-07T06:38:11.122Z,99680.97
2022-11-07T06:40:39.452Z,99678.53
2022-11-07T06:43:07.564Z,99681.81
2022-11-07T06:45:36.015Z,99684.78
2022-11-07T06:48:03.796Z,99680.63
2022-11-07T06:50:31.402Z,99679.47
2022-11-07T06:53:02.809Z,99674.50
2022-11-07T06:55:31.745Z,99673.50
2022-11-07T06:58:00.616Z,99674.16
2022-11-07T07:00:28.985Z,99679.06
2022-11-07T07:02:59.016Z,99681.91
2022-11-07T07:05:27.572Z,99685.75
2022-11-07T07:07:55.368Z,99691.06
2022-11-07T07:10:24.797Z,99692.28
2022-11-07T07:12:54.553Z,99695.63
2022-11-07T07:15:22.549Z,99698.28
2022-11-07T07:17:50.189Z,99697.28
2022-11-07T07:20:18.082Z,99705.09
2022-11-07T07:22:48.266Z,99708.38
2022-11-07T07:25:19.258Z,99707.91
2022-11-07T07:27:48.148Z,99712.88
2022-11-07T07:30:17.346Z,99711.31
2022-11-07T07:32:45.013Z,99714.31
2022-11-07T07:35:12.559Z,99715.16
2022-11-07T07:37:40.142Z,99710.31
2022-11-07T07:40:09.237Z,99716.25
2022-11-07T07:42:41.798Z,99712.97
2022-11-07T07:45:11.353Z,99727.97
2022-11-07T07:47:41.264Z,99719.84
2022-11-07T07:50:10.989Z,99729.97
2022-11-07T07:52:38.839Z,99726.78
2022-11-07T07:55:09.292Z,99717.63
2022-11-07T07:57:40.413Z,99713.69
2022-11-07T08:00:09.735Z,99717.44
2022-11-07T08:02:37.387Z,99722.94
2022-11-07T08:05:07.609Z,99713.84
2022-11-07T08:07:35.176Z,99711.50
2022-11-07T08:10:26.957Z,99708.28
2022-11-07T08:12:52.277Z,99709.84
2022-11-07T08:15:21.426Z,99704.16
2022-11-07T08:17:49.450Z,99708.84
2022-11-07T08:20:20.534Z,99705.44
2022-11-07T08:22:48.108Z,99722.13
2022-11-07T08:25:15.667Z,99722.47
2022-11-07T08:27:44.310Z,99729.34
2022-11-07T08:30:17.919Z,99731.97
2022-11-07T08:32:46.080Z,99728.03
2022-11-07T08:35:14.015Z,99723.19
2022-11-07T08:37:42.961Z,99734.94
2022-11-07T08:40:11.616Z,99732.44
2022-11-07T08:42:39.413Z,99732.63
2022-11-07T08:45:08.450Z,99737.56
2022-11-07T08:47:36.059Z,99741.78
2022-11-07T08:50:03.630Z,99744.91
2022-11-07T08:52:31.403Z,99741.25
2022-11-07T08:55:00.363Z,99750.41
2022-11-07T08:57:28.995Z,99749.84
2022-11-07T08:59:57.056Z,99751.06
2022-11-07T09:05:12.204Z,99746.44
2022-11-07T09:07:40.733Z,99749.56
2022-11-07T09:10:11.675Z,99755.25
2022-11-07T09:12:45.408Z,99747.75
2022-11-07T09:15:13.123Z,99747.81
2022-11-07T09:17:40.735Z,99748.47
2022-11-07T09:20:09.798Z,99745.47
2022-11-07T09:22:37.539Z,99746.66
2022-11-07T09:25:05.757Z,99740.34
2022-11-07T09:27:34.764Z,99728.91
2022-11-07T09:30:02.441Z,99726.69
2022-11-07T09:32:44.268Z,99733.09
2022-11-07T09:35:13.486Z,99726.88
2022-11-07T09:37:41.998Z,99737.59
2022-11-07T09:40:22.485Z,99733.38
2022-11-07T09:43:01.455Z,99736.94
2022-11-07T09:45:38.339Z,99743.59
2022-11-07T09:48:08.008Z,99741.91
2022-11-07T09:50:39.637Z,99734.38
2022-11-07T09:53:13.508Z,99729.00
2022-11-07T09:55:48.749Z,99730.72
2022-11-07T09:58:24.192Z,99734.00
2022-11-07T10:00:51.994Z,99723.47
2022-11-07T10:03:19.679Z,99716.50
2022-11-07T10:05:56.156Z,99711.81
2022-11-07T10:08:29.180Z,99711.78
2022-11-07T10:10:59.862Z,99716.16
2022-11-07T10:13:49.101Z,99719.44
2022-11-07T10:16:26.380Z,99724.50
2022-11-07T10:19:07.140Z,99725.88
2022-11-07T10:21:42.440Z,99729.50
2022-11-07T10:24:35.172Z,99724.25
2022-11-07T10:27:04.425Z,99718.41
2022-11-07T10:29:44.566Z,99714.78
2022-11-07T10:32:19.921Z,99713.44
2022-11-07T10:34:54.688Z,99712.94
2022-11-07T10:37:22.622Z,99713.06
2022-11-07T10:39:50.185Z,99724.72
2022-11-07T10:42:21.025Z,99719.63
2022-11-07T10:44:50.089Z,99733.94
2022-11-07T10:47:18.500Z,99732.56
2022-11-07T10:49:56.497Z,99737.25
2022-11-07T10:52:24.755Z,99725.59
2022-11-07T10:54:52.409Z,99733.63
2022-11-07T10:57:21.750Z,99725.91
2022-11-07T10:59:59.142Z,99728.19
2022-11-07T11:02:29.955Z,99727.97
2022-11-07T11:04:59.051Z,99710.81
2022-11-07T11:07:34.093Z,99715.06
2022-11-07T11:10:01.753Z,99708.84
2022-11-07T11:12:34.314Z,99706.75
2022-11-07T11:15:12.525Z,99706.66
2022-11-07T11:17:40.799Z,99702.84
2022-11-07T11:20:27.764Z,99712.53
2022-11-07T11:22:55.820Z,99696.34
2022-11-07T11:25:24.391Z,99697.53
2022-11-07T11:27:59.151Z,99684.53
2022-11-07T11:30:30.789Z,99687.78
2022-11-07T11:33:06.602Z,99686.34
2022-11-07T11:35:41.861Z,99677.53
2022-11-07T11:38:16.152Z,99679.66
2022-11-07T11:40:49.389Z,99671.56
2022-11-07T11:43:23.551Z,99675.59
2022-11-07T11:46:04.744Z,99679.41
2022-11-07T11:48:39.583Z,99681.25
2022-11-07T11:51:14.101Z,99682.41
2022-11-07T11:53:42.345Z,99683.25
2022-11-07T11:56:40.028Z,99683.00
2022-11-07T11:59:34.267Z,99685.66
2022-11-07T12:02:25.000Z,99688.66
2022-11-07T12:05:02.218Z,99689.63
2022-11-07T12:07:47.825Z,99687.50
2022-11-07T12:10:23.306Z,99691.28
2022-11-07T12:13:04.304Z,99685.41
2022-11-07T12:15:44.084Z,99689.16
2022-11-07T12:18:22.398Z,99690.97
2022-11-07T12:21:01.897Z,99687.75
2022-11-07T12:23:54.608Z,99685.19
2022-11-07T12:26:27.228Z,99678.94
2022-11-07T12:29:03.852Z,99680.38
2022-11-07T12:31:47.385Z,99674.25
2022-11-07T12:34:37.063Z,99670.56
2022-11-07T12:37:21.437Z,99675.84
2022-11-07T12:40:04.456Z,99672.56
2022-11-07T12:42:47.581Z,99675.66
2022-11-07T12:45:23.906Z,99684.47
2022-11-07T12:48:12.849Z,99680.41
2022-11-07T12:50:53.553Z,99678.31
2022-11-07T12:53:35.154Z,99674.41
2022-11-07T12:56:07.016Z,99672.56
2022-11-07T12:58:36.248Z,99663.78
2022-11-07T13:01:05.501Z,99668.91
2022-11-07T13:04:04.384Z,99667.22
2022-11-07T13:06:38.572Z,99665.53
2022-11-07T13:09:17.707Z,99672.72
2022-11-07T13:11:53.826Z,99670.28
2022-11-07T13:14:27.294Z,99673.75
2022-11-07T13:17:11.604Z,99677.03
2022-11-07T13:19:42.751Z,99673.31
2022-11-07T13:22:24.404Z,99669.78
2022-11-07T13:24:55.118Z,99672.50
2022-11-07T13:27:25.897Z,99663.72
2022-11-07T13:29:53.667Z,99657.72
2022-11-07T13:32:21.248Z,99655.09
2022-11-07T13:34:55.006Z,99644.66
2022-11-07T13:37:30.072Z,99643.66
2022-11-07T13:40:04.793Z,99654.91
2022-11-07T13:42:34.536Z,99651.66
2022-11-07T13:45:20.488Z,99647.38
2022-11-07T13:47:48.656Z,99650.00
2022-11-07T13:50:22.238Z,99660.50
2022-11-07T13:52:59.448Z,99653.50
2022-11-07T13:55:35.269Z,99665.63
2022-11-07T13:58:07.073Z,99657.00
2022-11-07T14:00:35.480Z,99673.69
2022-11-07T14:03:03.146Z,99660.53
2022-11-07T14:05:34.700Z,99660.31
2022-11-07T14:08:06.435Z,99666.72
2022-11-07T14:10:45.683Z,99675.31
2022-11-07T14:13:19.780Z,99684.56
2022-11-07T14:15:53.070Z,99680.00
2022-11-07T14:18:22.675Z,99686.53
2022-11-07T14:20:52.298Z,99693.31
2022-11-07T14:23:24.596Z,99687.94
2022-11-07T14:25:57.381Z,99687.38
2022-11-07T14:28:25.777Z,99686.78
2022-11-07T14:30:54.133Z,99687.81
2022-11-07T14:33:23.422Z,99683.53
2022-11-07T14:35:53.759Z,99678.41
2022-11-07T14:38:26.020Z,99682.06
2022-11-07T14:40:57.715Z,99685.97
2022-11-07T14:43:26.580Z,99686.16
2022-11-07T14:46:16.824Z,99681.63
2022-11-07T14:48:45.901Z,99675.25
2022-11-07T14:51:16.223Z,99680.31
2022-11-07T14:53:52.727Z,99692.19
2022-11-07T14:56:25.574Z,99692.06
2022-11-07T14:58:55.061Z,99698.00
2022-11-07T15:01:27.034Z,99692.66
2022-11-07T15:03:57.947Z,99693.22
2022-11-07T15:06:33.103Z,99687.69
2022-11-07T15:09:04.269Z,99691.19
2022-11-07T15:11:34.333Z,99696.47
2022-11-07T15:14:04.285Z,99684.75
2022-11-07T15:16:37.265Z,99684.56
2022-11-07T15:19:07.052Z,99686.78
2022-11-07T15:21:37.860Z,99689.72
2022-11-07T15:24:38.563Z,99687.00
2022-11-07T15:27:17.504Z,99690.69
2022-11-07T15:29:51.699Z,99695.38
2022-11-07T15:32:21.024Z,99693.97
2022-11-07T15:35:12.557Z,99696.66
2022-11-07T15:37:39.518Z,99695.75
2022-11-07T15:40:15.056Z,99694.94
2022-11-07T15:42:42.600Z,99709.22
2022-11-07T15:45:11.159Z,99700.97
2022-11-07T15:47:39.171Z,99696.78
2022-11-07T15:50:16.341Z,99702.38
2022-11-07T15:52:43.950Z,99700.97
2022-11-07T15:55:16.141Z,99703.00
2022-11-07T15:57:44.432Z,99710.66
2022-11-07T16:00:16.426Z,99710.97
2022-11-07T16:02:44.256Z,99716.19
2022-11-07T16:05:12.544Z,99717.78
2022-11-07T16:07:41.051Z,99719.63
2022-11-07T16:10:19.844Z,99717.34
2022-11-07T16:12:48.062Z,99713.41
2022-11-07T16:15:16.727Z,99716.97
2022-11-07T16:17:44.804Z,99710.44
2022-11-07T16:20:16.581Z,99721.47
2022-11-07T16:22:44.770Z,99722.94
2022-11-07T16:25:21.199Z,99719.91
2022-11-07T16:27:53.409Z,99719.50
2022-11-07T16:30:21.550Z,99717.22
2022-11-07T16:32:49.776Z,99712.72
2022-11-07T16:35:17.700Z,99720.28
2022-11-07T16:37:45.408Z,99722.19
2022-11-07T16:40:15.331Z,99724.44
2022-11-07T16:42:42.901Z,99720.34
2022-11-07T16:45:15.941Z,99719.41
2022-11-07T16:47:45.187Z,99715.00
2022-11-07T16:50:15.089Z,99730.69
2022-11-07T16:52:42.786Z,99729.91
2022-11-07T16:55:16.447Z,99729.72
2022-11-07T16:57:44.398Z,99724.47
2022-11-07T17:00:19.852Z,99728.13
2022-11-07T17:02:48.230Z,99719.75
2022-11-07T17:05:16.636Z,99725.31
2022-11-07T17:07:44.396Z,99721.41
2022-11-07T17:10:16.612Z,99724.84
2022-11-07T17:12:44.270Z,99723.94
2022-11-07T17:15:12.231Z,99723.13
2022-11-07T17:17:41.274Z,99718.50
2022-11-07T17:20:48.608Z,99723.44
2022-11-07T17:23:10.420Z,99720.53
2022-11-07T17:25:39.448Z,99720.91
2022-11-07T17:28:07.296Z,99726.25
2022-11-07T17:30:35.370Z,99722.75
2022-11-07T17:33:04.727Z,99726.47
2022-11-07T17:35:33.507Z,99731.56
2022-11-07T17:38:02.475Z,99732.00
2022-11-07T17:40:32.421Z,99728.97
2022-11-07T17:43:00.639Z,99723.81
2022-11-07T17:45:28.771Z,99726.06
2022-11-07T17:47:56.473Z,99725.91
2022-11-07T17:50:25.401Z,99732.44
2022-11-07T17:52:53.322Z,99721.69
2022-11-07T17:55:21.804Z,99724.91
2022-11-07T17:57:49.414Z,99724.59
2022-11-07T18:00:21.242Z,99720.97
2022-11-07T18:02:50.848Z,99714.72
2022-11-07T18:05:20.589Z,99719.78
2022-11-07T18:07:49.496Z,99724.28
2022-11-07T18:10:18.049Z,99723.00
2022-11-07T18:12:45.706Z,99719.06
2022-11-07T18:15:13.787Z,99723.75
2022-11-07T18:17:41.762Z,99716.28
2022-11-07T18:20:10.913Z,99717.03
2022-11-07T18:22:38.535Z,99717.34
2022-11-07T18:25:09.729Z,99721.16
2022-11-07T18:27:37.691Z,99714.53
2022-11-07T18:30:06.429Z,99721.69
2022-11-07T18:32:36.395Z,99714.63
2022-11-07T18:35:05.818Z,99719.16
2022-11-07T18:37:33.349Z,99718.53
2022-11-07T18:40:00.920Z,99720.16
2022-11-07T18:42:30.936Z,99722.81
2022-11-07T18:44:58.492Z,99721.09
2022-11-07T18:47:26.105Z,99716.06
2022-11-07T18:49:57.065Z,99717.91
2022-11-07T18:52:25.186Z,99716.13
2022-11-07T18:54:52.777Z,99714.22
2022-11-07T18:57:20.304Z,99709.75
2022-11-07T18:59:49.438Z,99695.19
2022-11-07T19:02:18.019Z,99693.72
2022-11-07T19:04:45.642Z,99703.91
2022-11-07T19:07:13.230Z,99711.84
2022-11-07T19:09:40.785Z,99705.47
2022-11-07T19:12:08.725Z,99705.59
2022-11-07T19:14:36.449Z,99697.88
2022-11-07T19:17:05.728Z,99707.78
2022-11-07T19:19:35.366Z,99709.16
2022-11-07T19:22:05.582Z,99717.41
2022-11-07T19:24:33.317Z,99718.31
2022-11-07T19:27:01.891Z,99717.03
2022-11-07T19:29:30.463Z,99719.13
2022-11-07T19:31:58.224Z,99717.78
2022-11-07T19:34:27.625Z,99717.91
2022-11-07T19:36:55.475Z,99725.53
2022-11-07T19:39:23.228Z,99715.00
2022-11-07T19:41:51.099Z,99718.56
2022-11-07T19:44:19.236Z,99720.28
2022-11-07T19:46:47.397Z,99716.25
2022-11-07T19:49:15.176Z,99714.44
2022-11-07T19:51:44.247Z,99716.50
2022-11-07T19:54:11.976Z,99710.78
2022-11-07T19:56:39.922Z,99714.66
2022-11-07T19:59:07.790Z,99714.22
2022-11-07T20:01:36.095Z,99721.53
2022-11-07T20:04:04.080Z,99718.25
2022-11-07T20:06:35.868Z,99720.25
2022-11-07T20:09:06.355Z,99714.38
2022-11-07T20:11:34.759Z,99714.31
2022-11-07T20:14:03.953Z,99719.31
2022-11-07T20:16:32.237Z,99724.31
2022-11-07T20:18:59.944Z,99722.34
2022-11-07T20:21:28.924Z,99719.59
2022-11-07T20:23:58.054Z,99711.00
2022-11-07T20:26:29.358Z,99712.81
2022-11-07T20:28:57.080Z,99707.50
2022-11-07T20:31:27.181Z,99715.59
2022-11-07T20:33:55.358Z,99718.16
2022-11-07T20:36:23.186Z,99710.22
2022-11-07T20:38:50.970Z,99719.72
2022-11-07T20:41:18.661Z,99711.72
2022-11-07T20:43:47.654Z,99722.97
2022-11-07T20:46:16.282Z,99711.72
2022-11-07T20:48:44.480Z,99705.72
2022-11-07T20:51:14.373Z,99710.94
2022-11-07T20:53:48.391Z,99717.16
2022-11-07T20:56:18.169Z,99721.81
2022-11-07T20:58:47.963Z,99716.88
2022-11-07T21:01:18.241Z,99721.81
2022-11-07T21:03:46.554Z,99719.44
2022-11-07T21:06:14.525Z,99710.72
2022-11-07T21:08:43.439Z,99717.13
2022-11-07T21:11:11.230Z,99711.94
2022-11-07T21:13:38.984Z,99710.00
2022-11-07T21:16:08.977Z,99702.78
2022-11-07T21:18:38.263Z,99703.53
2022-11-07T21:21:07.302Z,99705.09
2022-11-07T21:23:35.474Z,99703.06
2022-11-07T21:26:07.034Z,99699.13
2022-11-07T21:28:34.875Z,99697.13
2022-11-07T21:31:04.010Z,99701.13
2022-11-07T21:33:33.035Z,99698.47
2022-11-07T21:36:00.760Z,99698.75
2022-11-07T21:38:28.333Z,99693.78
2022-11-07T21:40:56.078Z,99693.84
2022-11-07T21:43:24.695Z,99695.00
2022-11-07T21:45:53.259Z,99693.75
2022-11-07T21:48:20.850Z,99679.09
2022-11-07T21:50:50.333Z,99683.56
2022-11-07T21:53:18.216Z,99681.34
2022-11-07T21:55:46.026Z,99678.56
2022-11-07T21:58:13.596Z,99675.34
2022-11-07T22:00:41.228Z,99673.09
2022-11-07T22:03:09.039Z,99671.47
2022-11-07T22:05:39.439Z,99674.53
2022-11-07T22:08:08.430Z,99679.00
2022-11-07T22:10:36.160Z,99679.69
2022-11-07T22:13:05.265Z,99682.69
2022-11-07T22:15:33.049Z,99674.41
2022-11-07T22:18:00.574Z,99671.44
2022-11-07T22:20:28.159Z,99662.38
2022-11-07T22:22:55.687Z,99654.97
2022-11-07T22:25:24.925Z,99654.97
2022-11-07T22:27:52.689Z,99659.72
2022-11-07T22:30:20.625Z,99649.34
2022-11-07T22:32:48.209Z,99647.38
2022-11-07T22:35:15.797Z,99649.84
2022-11-07T22:37:43.362Z,99652.69
2022-11-07T22:40:15.341Z,99667.41
2022-11-07T22:42:46.923Z,99668.28
2022-11-07T22:45:14.676Z,99660.97
2022-11-07T22:47:42.382Z,99658.47
2022-11-07T22:50:10.605Z,99653.97
2022-11-07T22:52:38.240Z,99645.72
2022-11-07T22:55:07.780Z,99642.41
2022-11-07T22:57:35.321Z,99654.06
2022-11-07T23:00:20.533Z,99650.41
2022-11-07T23:02:49.348Z,99641.25
2022-11-07T23:05:17.008Z,99653.50
2022-11-07T23:07:44.597Z,99653.19
2022-11-07T23:10:12.141Z,99647.16
2022-11-07T23:12:39.702Z,99649.91
2022-11-07T23:15:10.197Z,99656.81
2022-11-07T23:17:38.631Z,99651.91
2022-11-07T23:20:07.552Z,99650.41
2022-11-07T23:22:35.176Z,99643.66
2022-11-07T23:25:04.272Z,99644.97
2022-11-07T23:27:31.911Z,99643.50
2022-11-07T23:29:59.470Z,99636.25
2022-11-07T23:32:31.402Z,99637.38
2022-11-07T23:34:58.940Z,99633.09
2022-11-07T23:37:26.486Z,99632.75
2022-11-07T23:39:54.072Z,99638.03
2022-11-07T23:42:21.615Z,99628.44
2022-11-07T23:45:06.827Z,99634.22
2022-11-07T23:47:53.856Z,99631.22
2022-11-07T23:50:38.933Z,99632.56
2022-11-07T23:53:28.469Z,99634.19
2022-11-07T23:55:55.048Z,99627.94
2022-11-07T23:58:40.361Z,99626.59
